Alpena County Regional Airport
KAPN : now visible

Airfield :











YOU CAN JOIN US ON...

 
LOGIN :

Register | Disclaimer

   EN    FR    IT 

 









Legend :    VFR   Marginal VFR   IFR   Intensive IFR   Very Intensive IFR
Visi :
Ceiling :
>= 8 km
>= 3000ft
5 to 8 km
1000 to 3000 ft
1500m to 5 km
500 to 1000 ft
800 to 1500m
200 to 500 ft
< 800m
< 200 ft
Symbols :   Thunderstorms  Fog  Heavy snow  Heavy precipitations  Wind > 20 kt







- Airport Elevation : 690 ft
- IATA code : APN


KAPN - Alpena County Regional

CURRENT METAR :
  • 191654Z AUTO 01015G23KT 10SM OVC024 06/02 A2987 RMK AO2 SLP121 T00610022

EXPIRED METARs :
  • 191554Z AUTO 36015G22KT 10SM BKN020 06/03 A2986 RMK AO2 RAE04 SLP118 P0000 T00560028
  • 191504Z AUTO 35014KT 10SM BKN016 OVC034 04/03 A2984 RMK AO2 RAE04 P0000 T00440028
  • 191454Z AUTO 01015KT 10SM -RA BKN014 OVC032 04/03 A2983 RMK AO2 SLP107 P0000 60000 T00440028 51018
  • 191443Z AUTO 36015G23KT 10SM -RA BKN014 BKN022 OVC033 04/03 A2983 RMK AO2 P0000 T00440028
  • 191354Z AUTO 35013KT 10SM -RA OVC021 04/02 A2983 RMK AO2 RAB33 SLP106 P0000 T00390022

TAF KAPN
Valid from the 19 at 16:00 until the 20 at 12:00 UTC


191543Z 1916/2012 01013G22KT P6SM BKN015 OVC040
FM192100 01011G20KT P6SM OVC180
FM192300 01009KT P6SM OVC180
FM200400 02006KT P6SM SCT200
KZMP FIR / North America



MET'MAP, your aeronautical weather chart ! - Copyright ORBIFLY December 2007 - Disclaimer

ORBIFLY MET'MAP TEAM :

Programming & Development : Alexandra Zaïnal
Concept & Development : Baudouin d'Aumeries
Co-Development & Prog : Marc-Olivier Méhu
Technical & hardware support : Manuel Goepfert

Contact : metmap@orbifly.com




SOURCES & CREDITS :

   NOAA       Earth
Advisory